Time;durP1;ratioP1;P1;durP2;ratioP2;P2;SDS_P1;SDS_P2;PMS_P1;PMS_P2;Temp;Humidity;BMP_temperature;BMP_pressure;BME280_temperature;BME280_humidity;BME280_pressure;Samples;Min_cycle;Max_cycle;Signal;HPM_P1;HPM_P2
2022/11/21 00:02:13;;;;;;;21.60;17.33;;;;;;;;;;5073504;28;20477;-69
2022/11/21 00:05:03;;;;;;;22.07;17.20;;;;;;;;;;5072799;28;20464;-69
2022/11/21 00:07:52;;;;;;;22.13;18.33;;;;;;;;;;5069178;28;20486;-69
2022/11/21 00:10:50;;;;;;;21.20;17.30;;;;;;;;;;5073478;28;21132;-69
2022/11/21 00:13:41;;;;;;;21.50;17.50;;;;;;;;;;5073526;28;20489;-69
2022/11/21 00:16:33;;;;;;;22.67;17.97;;;;;;;;;;5067340;28;20464;-69
2022/11/21 00:19:23;;;;;;;23.20;17.33;;;;;;;;;;5075075;28;20973;-69
2022/11/21 00:22:12;;;;;;;21.03;17.50;;;;;;;;;;5071769;28;20487;-69
2022/11/21 00:25:01;;;;;;;21.03;17.27;;;;;;;;;;5068653;28;20935;-69
2022/11/21 00:27:55;;;;;;;20.07;16.53;;;;;;;;;;5074361;28;20904;-69
2022/11/21 00:30:46;;;;;;;20.07;16.43;;;;;;;;;;5075082;28;20529;-69
2022/11/21 00:33:42;;;;;;;20.50;16.50;;;;;;;;;;5076516;28;20449;-69
2022/11/21 00:36:35;;;;;;;22.40;17.10;;;;;;;;;;5070690;28;20929;-69
2022/11/21 00:39:23;;;;;;;21.67;16.70;;;;;;;;;;5078751;28;20440;-69
2022/11/21 00:42:16;;;;;;;18.23;15.07;;;;;;;;;;5076604;28;20484;-69
2022/11/21 00:45:14;;;;;;;20.17;16.47;;;;;;;;;;5074898;28;20499;-69
2022/11/21 00:48:11;;;;;;;20.00;16.23;;;;;;;;;;5079207;28;20462;-69
2022/11/21 00:51:04;;;;;;;20.23;16.10;;;;;;;;;;5074088;28;20473;-69
2022/11/21 00:53:55;;;;;;;18.33;16.33;;;;;;;;;;5074248;28;20457;-69
2022/11/21 00:56:46;;;;;;;19.80;15.97;;;;;;;;;;5075635;28;20440;-69
2022/11/21 00:59:39;;;;;;;19.10;16.23;;;;;;;;;;5075368;28;20476;-69
2022/11/21 01:02:32;;;;;;;19.67;16.10;;;;;;;;;;5066114;28;20480;-69
2022/11/21 01:05:22;;;;;;;19.37;15.37;;;;;;;;;;5075008;28;20578;-69
2022/11/21 01:08:13;;;;;;;18.90;15.67;;;;;;;;;;5074701;28;20463;-69
2022/11/21 01:11:04;;;;;;;22.13;17.53;;;;;;;;;;5071215;28;20796;-69
2022/11/21 01:13:59;;;;;;;19.13;16.13;;;;;;;;;;5074100;28;20463;-69
2022/11/21 01:16:48;;;;;;;21.17;15.77;;;;;;;;;;5077362;28;20969;-69
2022/11/21 01:19:41;;;;;;;19.67;16.30;;;;;;;;;;5075784;28;20448;-69
2022/11/21 01:22:30;;;;;;;18.40;16.17;;;;;;;;;;5076323;28;20485;-69
2022/11/21 01:25:19;;;;;;;19.30;15.60;;;;;;;;;;5073470;28;20480;-69
2022/11/21 01:28:10;;;;;;;21.10;16.23;;;;;;;;;;5075013;28;20551;-69
2022/11/21 01:31:03;;;;;;;19.77;16.40;;;;;;;;;;5075099;28;20507;-69
2022/11/21 01:33:54;;;;;;;22.83;17.50;;;;;;;;;;5074557;28;20554;-69
2022/11/21 01:36:44;;;;;;;22.63;18.10;;;;;;;;;;5077763;28;20448;-69
2022/11/21 01:39:35;;;;;;;19.47;16.67;;;;;;;;;;5072403;28;20515;-69
2022/11/21 01:42:23;;;;;;;21.07;17.80;;;;;;;;;;5073145;28;20518;-69
2022/11/21 01:45:27;;;;;;;20.50;16.53;;;;;;;;;;5071604;28;20472;-69
2022/11/21 01:48:17;;;;;;;19.53;16.50;;;;;;;;;;5073628;28;20458;-69
2022/11/21 01:51:09;;;;;;;20.93;16.77;;;;;;;;;;5070905;28;20480;-69
2022/11/21 01:54:01;;;;;;;20.87;17.07;;;;;;;;;;5074539;28;20475;-69
2022/11/21 01:56:51;;;;;;;18.77;15.40;;;;;;;;;;5073638;28;20451;-70
2022/11/21 01:59:44;;;;;;;19.13;15.93;;;;;;;;;;5071462;28;20463;-69
2022/11/21 02:02:35;;;;;;;20.60;16.67;;;;;;;;;;5071910;28;21089;-69
2022/11/21 02:05:30;;;;;;;19.90;15.37;;;;;;;;;;5071260;28;20483;-69
2022/11/21 02:08:22;;;;;;;20.33;16.20;;;;;;;;;;5066002;28;20467;-71
2022/11/21 02:11:16;;;;;;;18.57;16.60;;;;;;;;;;5068061;28;21269;-69
2022/11/21 02:14:06;;;;;;;19.13;14.73;;;;;;;;;;5085437;28;20522;-69
2022/11/21 02:17:03;;;;;;;18.47;15.67;;;;;;;;;;5101371;28;21721;-69
2022/11/21 02:19:58;;;;;;;21.20;16.47;;;;;;;;;;5095624;28;20439;-69
2022/11/21 02:22:56;;;;;;;17.23;14.70;;;;;;;;;;5079999;28;20498;-69
2022/11/21 02:25:46;;;;;;;19.30;15.30;;;;;;;;;;5067029;28;20483;-68
2022/11/21 02:28:34;;;;;;;18.87;15.40;;;;;;;;;;5074644;28;21192;-69
2022/11/21 02:31:26;;;;;;;20.00;15.60;;;;;;;;;;5070120;28;21035;-69
2022/11/21 02:34:17;;;;;;;17.47;15.30;;;;;;;;;;5073882;28;21080;-69
2022/11/21 02:37:10;;;;;;;18.90;15.83;;;;;;;;;;5071003;28;20458;-69
2022/11/21 02:39:59;;;;;;;17.40;14.50;;;;;;;;;;5075865;28;20467;-69
2022/11/21 02:42:57;;;;;;;16.97;15.17;;;;;;;;;;5078262;28;20508;-69
2022/11/21 02:45:47;;;;;;;19.37;14.73;;;;;;;;;;5078090;28;21003;-69
2022/11/21 02:48:40;;;;;;;15.70;13.50;;;;;;;;;;5079230;28;20617;-69
2022/11/21 02:51:30;;;;;;;16.47;14.07;;;;;;;;;;5080946;28;20487;-69
2022/11/21 02:54:19;;;;;;;17.90;14.70;;;;;;;;;;5076603;28;20463;-69
2022/11/21 02:57:07;;;;;;;17.40;14.90;;;;;;;;;;5078834;28;20442;-70
2022/11/21 02:59:57;;;;;;;16.90;14.00;;;;;;;;;;5077900;28;20444;-70
2022/11/21 03:02:48;;;;;;;17.83;14.80;;;;;;;;;;5076777;28;20472;-70
2022/11/21 03:05:38;;;;;;;20.47;14.20;;;;;;;;;;5077373;28;20493;-69
2022/11/21 03:08:26;;;;;;;19.93;15.20;;;;;;;;;;5101096;28;20448;-69
2022/11/21 03:11:15;;;;;;;17.20;14.77;;;;;;;;;;5108699;28;20479;-69
2022/11/21 03:14:07;;;;;;;18.00;14.43;;;;;;;;;;5109691;28;20442;-69
2022/11/21 03:17:00;;;;;;;16.20;14.10;;;;;;;;;;5109146;28;20467;-70
2022/11/21 03:19:50;;;;;;;15.90;13.90;;;;;;;;;;5108055;28;20437;-69
2022/11/21 03:22:39;;;;;;;15.47;13.67;;;;;;;;;;5106801;28;20475;-69
2022/11/21 03:25:28;;;;;;;17.90;14.17;;;;;;;;;;5102894;28;20445;-69
2022/11/21 03:28:17;;;;;;;17.00;14.40;;;;;;;;;;5108532;28;20448;-69
2022/11/21 03:31:06;;;;;;;18.60;14.07;;;;;;;;;;5104627;28;20468;-70
2022/11/21 03:33:59;;;;;;;15.47;13.70;;;;;;;;;;5103927;28;20470;-69
2022/11/21 03:36:48;;;;;;;16.53;12.70;;;;;;;;;;5100881;28;20508;-69
2022/11/21 03:39:37;;;;;;;17.10;13.10;;;;;;;;;;5102389;28;20453;-69
2022/11/21 03:42:28;;;;;;;14.80;12.80;;;;;;;;;;5101139;28;20491;-69
2022/11/21 03:45:17;;;;;;;17.37;14.20;;;;;;;;;;5099838;28;20451;-69
2022/11/21 03:48:10;;;;;;;15.60;13.30;;;;;;;;;;5072453;28;21222;-69
2022/11/21 03:51:00;;;;;;;16.47;13.40;;;;;;;;;;5078558;28;20484;-69
2022/11/21 03:53:53;;;;;;;14.23;12.57;;;;;;;;;;5075637;28;20444;-69
2022/11/21 03:56:45;;;;;;;17.57;12.60;;;;;;;;;;5078852;28;20782;-69
2022/11/21 03:59:36;;;;;;;15.50;13.40;;;;;;;;;;5074529;28;21564;-69
2022/11/21 04:02:25;;;;;;;14.00;12.00;;;;;;;;;;5072608;28;20955;-70
2022/11/21 04:05:13;;;;;;;17.30;12.90;;;;;;;;;;5071585;28;20459;-69
2022/11/21 04:08:03;;;;;;;13.07;11.67;;;;;;;;;;5071788;28;20992;-69
2022/11/21 04:10:56;;;;;;;17.70;12.27;;;;;;;;;;5073093;28;20497;-69
2022/11/21 04:13:45;;;;;;;14.10;12.40;;;;;;;;;;5077200;28;20987;-69
2022/11/21 04:16:34;;;;;;;14.60;12.03;;;;;;;;;;5070408;28;20460;-69
2022/11/21 04:19:26;;;;;;;12.90;10.53;;;;;;;;;;5069819;28;20478;-69
2022/11/21 04:22:17;;;;;;;15.97;12.17;;;;;;;;;;5076187;28;20579;-69
2022/11/21 04:25:15;;;;;;;14.57;11.97;;;;;;;;;;5078216;28;20455;-69
2022/11/21 04:28:06;;;;;;;14.60;11.90;;;;;;;;;;5076129;28;20468;-69
2022/11/21 04:30:56;;;;;;;14.57;12.30;;;;;;;;;;5070279;28;20471;-69
2022/11/21 04:33:57;;;;;;;16.10;12.27;;;;;;;;;;5076346;28;20451;-69
2022/11/21 04:36:49;;;;;;;15.00;11.57;;;;;;;;;;5076586;28;20450;-69
2022/11/21 04:39:37;;;;;;;15.30;12.70;;;;;;;;;;5076665;28;20442;-69
2022/11/21 04:42:29;;;;;;;15.70;12.67;;;;;;;;;;5078597;28;20490;-69
2022/11/21 04:45:19;;;;;;;14.50;12.00;;;;;;;;;;5076358;28;20460;-69
2022/11/21 04:48:08;;;;;;;18.83;14.57;;;;;;;;;;5074838;28;20475;-69
2022/11/21 04:50:58;;;;;;;16.60;13.37;;;;;;;;;;5076274;28;20462;-69
2022/11/21 04:53:48;;;;;;;16.47;13.00;;;;;;;;;;5077738;28;20456;-70
2022/11/21 04:56:44;;;;;;;15.87;12.10;;;;;;;;;;5076020;28;20449;-69
2022/11/21 04:59:39;;;;;;;16.57;12.33;;;;;;;;;;5079439;28;20459;-69
2022/11/21 05:02:30;;;;;;;15.93;13.20;;;;;;;;;;5074688;28;20974;-69
2022/11/21 05:05:18;;;;;;;18.23;13.53;;;;;;;;;;5075335;28;20455;-69
2022/11/21 05:08:09;;;;;;;17.10;13.37;;;;;;;;;;5072234;28;20491;-69
2022/11/21 05:14:05;;;;;;;16.07;12.90;;;;;;;;;;5072176;28;20456;-69
2022/11/21 05:16:58;;;;;;;17.70;14.00;;;;;;;;;;5071976;28;20451;-69
2022/11/21 05:19:47;;;;;;;17.40;13.07;;;;;;;;;;5073525;28;20456;-69
2022/11/21 05:22:38;;;;;;;18.27;13.00;;;;;;;;;;5074736;28;20481;-69
2022/11/21 05:25:28;;;;;;;16.20;13.10;;;;;;;;;;5071738;28;20459;-69
2022/11/21 05:28:16;;;;;;;20.17;13.80;;;;;;;;;;5073671;28;20489;-69
2022/11/21 05:31:06;;;;;;;19.80;14.33;;;;;;;;;;5071427;28;20590;-69
2022/11/21 05:33:56;;;;;;;16.07;13.37;;;;;;;;;;5075689;28;20454;-69
2022/11/21 05:36:49;;;;;;;16.40;13.33;;;;;;;;;;5070464;28;20862;-68
2022/11/21 05:39:39;;;;;;;18.30;14.07;;;;;;;;;;5068975;28;20459;-69
2022/11/21 05:45:46;;;;;;;18.40;14.70;;;;;;;;;;5074108;28;20966;-69
2022/11/21 05:48:39;;;;;;;15.63;12.63;;;;;;;;;;5065932;28;20478;-69
2022/11/21 05:51:32;;;;;;;17.40;13.30;;;;;;;;;;5073931;28;20483;-69
2022/11/21 05:54:23;;;;;;;17.40;13.47;;;;;;;;;;5070777;28;20464;-69
2022/11/21 05:57:19;;;;;;;16.33;12.57;;;;;;;;;;5068649;28;20931;-70
2022/11/21 06:00:11;;;;;;;18.67;13.30;;;;;;;;;;5072398;28;20451;-69
2022/11/21 06:06:09;;;;;;;18.47;13.20;;;;;;;;;;5073495;28;20926;-69
2022/11/21 06:09:05;;;;;;;16.30;13.13;;;;;;;;;;5073217;28;20456;-69
2022/11/21 06:11:55;;;;;;;18.90;14.07;;;;;;;;;;5064172;28;20862;-69
2022/11/21 06:14:46;;;;;;;15.70;12.50;;;;;;;;;;5071402;28;21117;-69
2022/11/21 06:17:35;;;;;;;16.60;13.33;;;;;;;;;;5064751;28;20442;-70
2022/11/21 06:20:29;;;;;;;15.80;13.57;;;;;;;;;;5076722;28;20463;-69
2022/11/21 06:23:19;;;;;;;18.03;13.90;;;;;;;;;;5081470;28;20829;-69
2022/11/21 06:26:15;;;;;;;20.13;14.53;;;;;;;;;;5075942;28;21496;-69
2022/11/21 06:29:03;;;;;;;17.03;13.97;;;;;;;;;;5076460;28;20556;-69
2022/11/21 06:31:54;;;;;;;19.53;15.10;;;;;;;;;;5070001;28;21783;-72
2022/11/21 06:34:43;;;;;;;21.20;14.83;;;;;;;;;;5076815;28;20748;-70
2022/11/21 06:37:33;;;;;;;17.67;14.00;;;;;;;;;;5067671;28;20483;-71
2022/11/21 06:40:22;;;;;;;17.93;14.70;;;;;;;;;;5069904;28;20514;-71
2022/11/21 06:43:12;;;;;;;20.73;14.20;;;;;;;;;;5079344;28;20483;-73
2022/11/21 06:46:02;;;;;;;16.37;13.17;;;;;;;;;;5080281;28;20457;-72
2022/11/21 06:48:54;;;;;;;16.93;14.30;;;;;;;;;;5073777;28;20543;-69
2022/11/21 06:51:42;;;;;;;19.57;15.00;;;;;;;;;;5079410;28;21013;-69
2022/11/21 06:54:31;;;;;;;17.20;13.83;;;;;;;;;;5080540;28;20827;-69
2022/11/21 06:57:20;;;;;;;18.33;13.60;;;;;;;;;;5080095;28;20456;-69
2022/11/21 07:00:14;;;;;;;19.00;14.73;;;;;;;;;;5081880;28;20458;-69
2022/11/21 07:03:03;;;;;;;23.83;15.30;;;;;;;;;;5080814;28;21293;-70
2022/11/21 07:05:57;;;;;;;17.27;13.47;;;;;;;;;;5078115;28;20519;-69
2022/11/21 07:08:45;;;;;;;19.77;15.07;;;;;;;;;;5100943;28;20461;-69
2022/11/21 07:11:47;;;;;;;18.10;15.03;;;;;;;;;;5105742;28;20487;-68
2022/11/21 07:14:35;;;;;;;19.20;14.77;;;;;;;;;;5098655;28;20451;-74
2022/11/21 07:17:25;;;;;;;18.10;14.70;;;;;;;;;;5080214;28;20461;-69
2022/11/21 07:20:14;;;;;;;18.33;13.87;;;;;;;;;;5078811;28;20914;-70
2022/11/21 07:23:02;;;;;;;20.00;14.70;;;;;;;;;;5078168;28;20478;-69
2022/11/21 07:25:51;;;;;;;17.83;14.30;;;;;;;;;;5079980;28;20461;-69
2022/11/21 07:28:39;;;;;;;20.30;14.20;;;;;;;;;;5079711;28;20469;-69
2022/11/21 07:31:28;;;;;;;21.47;15.40;;;;;;;;;;5080976;28;20490;-69
2022/11/21 07:34:18;;;;;;;18.57;14.30;;;;;;;;;;5078601;28;21016;-69
2022/11/21 07:37:06;;;;;;;18.90;15.10;;;;;;;;;;5074850;28;20455;-69
2022/11/21 07:39:58;;;;;;;18.97;14.87;;;;;;;;;;5079427;28;20463;-69
2022/11/21 07:42:46;;;;;;;19.90;14.57;;;;;;;;;;5075488;28;21052;-69
2022/11/21 07:45:35;;;;;;;17.40;14.43;;;;;;;;;;5079835;28;20455;-69
2022/11/21 07:48:23;;;;;;;19.70;14.00;;;;;;;;;;5077757;28;20871;-69
2022/11/21 07:51:15;;;;;;;18.50;14.50;;;;;;;;;;5077186;28;20571;-69
2022/11/21 07:54:04;;;;;;;19.90;14.80;;;;;;;;;;5078424;28;20460;-69
2022/11/21 07:56:53;;;;;;;19.07;14.03;;;;;;;;;;5076032;28;20816;-69
2022/11/21 07:59:41;;;;;;;18.57;14.10;;;;;;;;;;5078273;28;20452;-69
2022/11/21 08:02:30;;;;;;;17.57;13.87;;;;;;;;;;5073038;28;21031;-69
2022/11/21 08:05:18;;;;;;;17.60;13.50;;;;;;;;;;5075693;28;20519;-69
2022/11/21 08:08:09;;;;;;;18.77;14.23;;;;;;;;;;5078727;28;20471;-69
2022/11/21 08:10:57;;;;;;;18.67;15.50;;;;;;;;;;5076081;28;20469;-69
2022/11/21 08:13:46;;;;;;;19.23;14.80;;;;;;;;;;5078417;28;20442;-69
2022/11/21 08:16:34;;;;;;;21.20;14.47;;;;;;;;;;5076423;28;21039;-69
2022/11/21 08:19:23;;;;;;;17.53;13.40;;;;;;;;;;5077030;28;20973;-69
2022/11/21 08:22:12;;;;;;;17.60;14.67;;;;;;;;;;5079555;28;21081;-69
2022/11/21 08:25:02;;;;;;;21.47;15.57;;;;;;;;;;5075656;28;20826;-69
2022/11/21 08:27:50;;;;;;;19.67;15.13;;;;;;;;;;5084198;28;20471;-69
2022/11/21 08:30:39;;;;;;;18.67;14.47;;;;;;;;;;5089893;28;20479;-69
2022/11/21 08:33:29;;;;;;;24.03;16.70;;;;;;;;;;5076077;28;21403;-69
2022/11/21 08:36:18;;;;;;;21.30;15.40;;;;;;;;;;5075558;28;20449;-69
2022/11/21 08:39:06;;;;;;;20.43;15.10;;;;;;;;;;5077837;28;20444;-69
2022/11/21 08:42:05;;;;;;;20.43;15.30;;;;;;;;;;5074606;28;20500;-69
2022/11/21 08:44:54;;;;;;;19.73;15.53;;;;;;;;;;5078103;28;20561;-70
2022/11/21 08:47:44;;;;;;;20.13;14.27;;;;;;;;;;5071455;28;20962;-69
2022/11/21 08:50:33;;;;;;;18.63;14.20;;;;;;;;;;5073786;28;20458;-69
2022/11/21 08:53:21;;;;;;;19.20;15.07;;;;;;;;;;5073077;28;20481;-69
2022/11/21 08:56:12;;;;;;;18.00;15.23;;;;;;;;;;5078014;28;20443;-69
2022/11/21 08:59:01;;;;;;;17.63;13.47;;;;;;;;;;5071276;28;20459;-68
2022/11/21 09:01:56;;;;;;;17.00;13.20;;;;;;;;;;5068695;28;20528;-69
2022/11/21 09:04:47;;;;;;;16.33;13.23;;;;;;;;;;5073142;28;20457;-69
2022/11/21 09:07:37;;;;;;;16.03;13.23;;;;;;;;;;5077109;28;20456;-69
2022/11/21 09:10:36;;;;;;;16.80;13.13;;;;;;;;;;5077520;28;20843;-69
2022/11/21 09:13:28;;;;;;;15.50;12.97;;;;;;;;;;5076988;28;20479;-69
2022/11/21 09:19:31;;;;;;;16.80;13.57;;;;;;;;;;5075780;28;20538;-69
2022/11/21 09:22:19;;;;;;;18.13;13.53;;;;;;;;;;5077071;28;20578;-69
2022/11/21 09:25:11;;;;;;;17.53;12.83;;;;;;;;;;5074567;28;20470;-69
2022/11/21 09:28:02;;;;;;;18.50;13.33;;;;;;;;;;5089714;28;20790;-68
2022/11/21 09:30:54;;;;;;;18.93;14.03;;;;;;;;;;5091106;28;20550;-69
2022/11/21 09:33:47;;;;;;;18.17;13.90;;;;;;;;;;5080358;28;20452;-69
2022/11/21 09:36:42;;;;;;;17.40;13.13;;;;;;;;;;5077846;28;20464;-69
2022/11/21 09:39:30;;;;;;;18.07;13.57;;;;;;;;;;5078326;28;20452;-69
2022/11/21 09:42:40;;;;;;;20.30;14.47;;;;;;;;;;5073670;28;20559;-69
2022/11/21 09:45:42;;;;;;;18.63;13.90;;;;;;;;;;5071152;28;20452;-69
2022/11/21 09:48:36;;;;;;;17.53;13.60;;;;;;;;;;5077992;28;21053;-69
2022/11/21 09:51:34;;;;;;;16.93;12.90;;;;;;;;;;5075444;28;20481;-69
2022/11/21 09:54:25;;;;;;;17.87;13.43;;;;;;;;;;5078603;28;20468;-69
2022/11/21 09:57:16;;;;;;;14.23;11.97;;;;;;;;;;5077218;28;20456;-69
2022/11/21 10:00:11;;;;;;;16.50;12.80;;;;;;;;;;5078346;28;20819;-69
2022/11/21 10:03:01;;;;;;;18.03;14.00;;;;;;;;;;5077653;28;20484;-69
2022/11/21 10:05:53;;;;;;;18.27;13.00;;;;;;;;;;5076508;28;20940;-70
2022/11/21 10:08:49;;;;;;;16.13;12.00;;;;;;;;;;5076565;28;20468;-69
2022/11/21 10:14:54;;;;;;;15.33;11.37;;;;;;;;;;5076127;28;20444;-69
2022/11/21 10:17:56;;;;;;;15.87;11.83;;;;;;;;;;5078416;28;20577;-69
2022/11/21 10:20:53;;;;;;;13.87;12.20;;;;;;;;;;5078141;28;20465;-69
2022/11/21 10:23:54;;;;;;;15.90;12.00;;;;;;;;;;5077489;28;20909;-69
2022/11/21 10:26:51;;;;;;;15.43;12.90;;;;;;;;;;5081309;28;20453;-69
2022/11/21 10:29:42;;;;;;;13.23;11.10;;;;;;;;;;5078281;28;20475;-69
2022/11/21 10:32:32;;;;;;;14.40;11.37;;;;;;;;;;5077979;28;20478;-69
2022/11/21 10:35:24;;;;;;;14.87;11.60;;;;;;;;;;5077269;28;20457;-69
2022/11/21 10:38:21;;;;;;;16.53;12.50;;;;;;;;;;5073836;28;20486;-69
2022/11/21 10:41:17;;;;;;;13.20;10.63;;;;;;;;;;5077013;28;20465;-69
2022/11/21 10:47:27;;;;;;;14.53;11.67;;;;;;;;;;5078839;28;20456;-69
2022/11/21 10:50:20;;;;;;;13.03;10.90;;;;;;;;;;5075340;28;20469;-69
2022/11/21 10:56:37;;;;;;;13.53;10.90;;;;;;;;;;5077827;28;20464;-70
2022/11/21 10:59:26;;;;;;;13.80;10.53;;;;;;;;;;5077747;28;20445;-70
2022/11/21 11:02:23;;;;;;;11.50;9.60;;;;;;;;;;5080979;28;20495;-70
2022/11/21 11:05:21;;;;;;;12.23;9.80;;;;;;;;;;5081555;28;20465;-69
2022/11/21 11:08:11;;;;;;;13.97;10.40;;;;;;;;;;5080650;28;20462;-69
2022/11/21 11:11:02;;;;;;;11.13;9.93;;;;;;;;;;5079536;28;20481;-70
2022/11/21 11:14:04;;;;;;;12.23;9.83;;;;;;;;;;5079203;28;20454;-70
2022/11/21 11:16:56;;;;;;;12.20;10.23;;;;;;;;;;5081556;28;20448;-69
2022/11/21 11:20:00;;;;;;;13.90;9.20;;;;;;;;;;5079588;28;20962;-69
2022/11/21 11:22:50;;;;;;;11.47;9.20;;;;;;;;;;5079763;28;20493;-69
2022/11/21 11:25:40;;;;;;;15.43;10.47;;;;;;;;;;5076808;28;20556;-69
2022/11/21 11:28:36;;;;;;;11.67;9.40;;;;;;;;;;5079442;28;20961;-69
2022/11/21 11:31:43;;;;;;;13.93;10.70;;;;;;;;;;5082553;28;20484;-69
2022/11/21 11:34:38;;;;;;;12.07;9.40;;;;;;;;;;5085279;28;20864;-69
2022/11/21 11:37:33;;;;;;;10.20;9.00;;;;;;;;;;5078590;28;20456;-69
2022/11/21 11:40:31;;;;;;;10.57;8.60;;;;;;;;;;5079440;28;20450;-69
2022/11/21 11:50:15;;;;;;;10.70;9.17;;;;;;;;;;5083377;28;20603;-69
2022/11/21 11:53:08;;;;;;;10.30;8.60;;;;;;;;;;5078441;28;21016;-69
2022/11/21 11:56:01;;;;;;;10.70;8.90;;;;;;;;;;5079449;28;20484;-69
2022/11/21 11:58:52;;;;;;;9.40;8.17;;;;;;;;;;5080210;28;20457;-69
2022/11/21 12:01:48;;;;;;;8.73;7.00;;;;;;;;;;5079217;28;20474;-69
2022/11/21 12:04:39;;;;;;;10.33;8.47;;;;;;;;;;5081956;28;20466;-70
2022/11/21 12:07:34;;;;;;;11.03;8.20;;;;;;;;;;5096139;28;20445;-69
2022/11/21 12:13:58;;;;;;;9.90;7.63;;;;;;;;;;5094075;28;20959;-69
2022/11/21 12:16:53;;;;;;;9.80;8.10;;;;;;;;;;5079976;28;20447;-69
2022/11/21 12:19:42;;;;;;;9.40;7.20;;;;;;;;;;5079999;28;20452;-69
2022/11/21 12:22:31;;;;;;;7.70;6.67;;;;;;;;;;5074734;28;20877;-69
2022/11/21 12:25:22;;;;;;;9.90;8.13;;;;;;;;;;5075867;28;20450;-68
2022/11/21 12:28:21;;;;;;;7.07;6.30;;;;;;;;;;5078119;28;20450;-69
2022/11/21 12:31:18;;;;;;;7.43;6.60;;;;;;;;;;5069873;28;20848;-69
2022/11/21 12:34:18;;;;;;;7.03;6.30;;;;;;;;;;5075757;28;20459;-70
2022/11/21 12:37:11;;;;;;;6.87;5.90;;;;;;;;;;5076230;28;20495;-69
2022/11/21 12:40:00;;;;;;;6.77;5.97;;;;;;;;;;5076180;28;20492;-69
2022/11/21 12:42:55;;;;;;;7.67;5.90;;;;;;;;;;5069360;28;20490;-70
2022/11/21 12:45:51;;;;;;;8.03;5.97;;;;;;;;;;5077144;28;20495;-69
2022/11/21 12:55:30;;;;;;;7.67;5.40;;;;;;;;;;5080970;28;20463;-68
2022/11/21 12:58:27;;;;;;;6.07;5.47;;;;;;;;;;5080629;28;20461;-68
2022/11/21 13:01:23;;;;;;;4.90;4.40;;;;;;;;;;5076733;28;20863;-69
2022/11/21 13:04:14;;;;;;;6.50;5.27;;;;;;;;;;5080001;28;20595;-69
2022/11/21 13:07:08;;;;;;;6.33;5.73;;;;;;;;;;5079719;28;20524;-69
2022/11/21 13:10:00;;;;;;;6.40;5.80;;;;;;;;;;5076918;28;20828;-69
2022/11/21 13:12:52;;;;;;;7.00;5.83;;;;;;;;;;5081060;28;20483;-69
2022/11/21 13:15:52;;;;;;;6.83;5.43;;;;;;;;;;5079221;28;20454;-69
2022/11/21 13:18:43;;;;;;;7.93;5.80;;;;;;;;;;5079530;28;20481;-69
2022/11/21 13:21:41;;;;;;;4.90;4.37;;;;;;;;;;5076931;28;20487;-69
2022/11/21 13:24:48;;;;;;;5.53;4.93;;;;;;;;;;5080370;28;20949;-69
2022/11/21 13:27:43;;;;;;;4.83;4.43;;;;;;;;;;5081446;28;20458;-69
2022/11/21 13:30:32;;;;;;;5.83;4.60;;;;;;;;;;5078414;28;20480;-69
2022/11/21 13:33:35;;;;;;;4.50;4.10;;;;;;;;;;5076744;28;20478;-69
2022/11/21 13:36:40;;;;;;;7.93;6.50;;;;;;;;;;5077114;28;21270;-69
2022/11/21 13:39:36;;;;;;;7.90;6.77;;;;;;;;;;5075275;28;20645;-69
2022/11/21 13:45:57;;;;;;;9.73;7.03;;;;;;;;;;5075332;28;20873;-69
2022/11/21 13:48:57;;;;;;;8.33;7.33;;;;;;;;;;5082463;28;20458;-70
2022/11/21 13:51:54;;;;;;;7.90;7.10;;;;;;;;;;5079634;28;20500;-69
2022/11/21 13:54:57;;;;;;;8.50;6.67;;;;;;;;;;5079709;28;20440;-69
2022/11/21 13:58:00;;;;;;;9.00;7.60;;;;;;;;;;5077729;28;20475;-69
2022/11/21 14:01:05;;;;;;;7.23;6.40;;;;;;;;;;5072480;28;20483;-70
2022/11/21 14:04:01;;;;;;;10.00;6.83;;;;;;;;;;5080264;28;20450;-70
2022/11/21 14:06:49;;;;;;;9.10;7.00;;;;;;;;;;5077587;28;20461;-69
2022/11/21 14:09:48;;;;;;;9.47;7.30;;;;;;;;;;5076914;28;20458;-70
2022/11/21 14:12:39;;;;;;;8.80;7.40;;;;;;;;;;5078487;28;20499;-69
2022/11/21 14:15:40;;;;;;;10.27;7.53;;;;;;;;;;5076496;28;20861;-70
2022/11/21 14:18:36;;;;;;;11.30;8.60;;;;;;;;;;5077218;28;20457;-70
2022/11/21 14:21:28;;;;;;;12.70;9.73;;;;;;;;;;5073997;28;20477;-70
2022/11/21 14:24:21;;;;;;;11.70;8.50;;;;;;;;;;5077057;28;20985;-70
2022/11/21 14:27:22;;;;;;;10.63;8.80;;;;;;;;;;5077403;28;20469;-70
2022/11/21 14:30:25;;;;;;;10.87;8.70;;;;;;;;;;5075440;28;20613;-70
2022/11/21 14:33:21;;;;;;;10.73;8.50;;;;;;;;;;5075711;28;20481;-70
2022/11/21 14:36:16;;;;;;;9.90;7.90;;;;;;;;;;5076027;28;20594;-69
2022/11/21 14:39:09;;;;;;;9.03;7.40;;;;;;;;;;5077113;28;20463;-70
2022/11/21 14:42:18;;;;;;;8.40;6.93;;;;;;;;;;5096143;28;20482;-70
2022/11/21 14:45:11;;;;;;;12.87;8.27;;;;;;;;;;5079501;28;20547;-70
2022/11/21 14:48:00;;;;;;;9.77;8.10;;;;;;;;;;5077554;28;20448;-70
2022/11/21 14:50:48;;;;;;;11.53;9.03;;;;;;;;;;5081047;28;20461;-69
2022/11/21 14:53:42;;;;;;;11.47;7.60;;;;;;;;;;5080149;28;20782;-70
2022/11/21 14:56:34;;;;;;;7.60;6.80;;;;;;;;;;5079982;28;20466;-70
2022/11/21 14:59:24;;;;;;;8.90;7.40;;;;;;;;;;5079361;28;20823;-69
2022/11/21 15:02:22;;;;;;;10.07;8.37;;;;;;;;;;5079763;28;20479;-70
2022/11/21 15:05:32;;;;;;;10.90;7.67;;;;;;;;;;5077853;28;20572;-70
2022/11/21 15:08:46;;;;;;;9.77;7.97;;;;;;;;;;5074057;28;20441;-70
2022/11/21 15:11:59;;;;;;;9.90;7.83;;;;;;;;;;5068007;28;20495;-70
2022/11/21 15:14:51;;;;;;;9.70;7.30;;;;;;;;;;5074551;28;20665;-70
2022/11/21 15:17:41;;;;;;;8.53;7.43;;;;;;;;;;5064899;28;20834;-69
2022/11/21 15:20:54;;;;;;;9.67;7.40;;;;;;;;;;5079676;28;20469;-70
2022/11/21 15:23:46;;;;;;;12.50;7.57;;;;;;;;;;5073592;28;20473;-70
2022/11/21 15:26:39;;;;;;;10.43;7.80;;;;;;;;;;5076081;28;20452;-70
2022/11/21 15:29:31;;;;;;;12.00;8.20;;;;;;;;;;5076549;28;20441;-70
2022/11/21 15:32:23;;;;;;;10.20;7.93;;;;;;;;;;5076785;28;21008;-70
2022/11/21 15:35:32;;;;;;;9.03;7.30;;;;;;;;;;5078874;28;20456;-70
2022/11/21 15:38:28;;;;;;;10.23;7.67;;;;;;;;;;5068993;28;20836;-70
2022/11/21 15:41:29;;;;;;;9.20;6.77;;;;;;;;;;5075966;28;20581;-70
2022/11/21 15:44:24;;;;;;;8.90;7.23;;;;;;;;;;5079948;28;21054;-69
2022/11/21 15:47:16;;;;;;;9.33;7.80;;;;;;;;;;5076214;28;20469;-69
2022/11/21 15:50:05;;;;;;;9.90;7.20;;;;;;;;;;5077524;28;20822;-69
2022/11/21 15:53:00;;;;;;;8.90;7.70;;;;;;;;;;5079815;28;20489;-69
2022/11/21 15:55:51;;;;;;;11.10;7.10;;;;;;;;;;5077343;28;20989;-69
2022/11/21 15:58:41;;;;;;;8.70;7.80;;;;;;;;;;5078144;28;20456;-69
2022/11/21 16:01:34;;;;;;;10.80;7.37;;;;;;;;;;5079220;28;20550;-69
2022/11/21 16:04:27;;;;;;;9.57;7.20;;;;;;;;;;5071968;28;20453;-70
2022/11/21 16:07:15;;;;;;;9.70;8.07;;;;;;;;;;5074334;28;20453;-69
2022/11/21 16:10:04;;;;;;;10.70;7.20;;;;;;;;;;5078986;28;20461;-69
2022/11/21 16:12:56;;;;;;;9.40;7.20;;;;;;;;;;5077629;28;20945;-69
2022/11/21 16:15:48;;;;;;;10.43;7.13;;;;;;;;;;5078364;28;20813;-69
2022/11/21 16:18:43;;;;;;;8.20;7.30;;;;;;;;;;5080164;28;20462;-69
2022/11/21 16:21:39;;;;;;;10.80;7.63;;;;;;;;;;5078814;28;20482;-69
2022/11/21 16:24:30;;;;;;;8.63;7.10;;;;;;;;;;5077687;28;20450;-69
2022/11/21 16:27:19;;;;;;;9.87;7.40;;;;;;;;;;5068199;28;20462;-69
2022/11/21 16:30:09;;;;;;;9.70;7.57;;;;;;;;;;5074497;28;20509;-69
2022/11/21 16:33:05;;;;;;;8.27;7.27;;;;;;;;;;5074879;28;20487;-69
2022/11/21 16:35:59;;;;;;;12.07;8.37;;;;;;;;;;5062533;28;20455;-69
2022/11/21 16:38:53;;;;;;;9.87;7.43;;;;;;;;;;5070689;28;20816;-69
2022/11/21 16:41:51;;;;;;;10.10;7.90;;;;;;;;;;5074524;28;20470;-70
2022/11/21 16:44:39;;;;;;;8.47;6.97;;;;;;;;;;5078995;28;20453;-70
2022/11/21 16:47:34;;;;;;;11.03;8.23;;;;;;;;;;5076025;28;20453;-70
2022/11/21 16:50:25;;;;;;;8.73;6.83;;;;;;;;;;5072001;28;20539;-70
2022/11/21 16:53:17;;;;;;;8.93;7.37;;;;;;;;;;5078395;28;20488;-70
2022/11/21 16:56:11;;;;;;;10.43;8.83;;;;;;;;;;5078853;28;20442;-73
2022/11/21 16:59:00;;;;;;;8.80;7.30;;;;;;;;;;5076269;28;20455;-70
2022/11/21 17:01:50;;;;;;;8.03;7.23;;;;;;;;;;5092769;28;20579;-73
2022/11/21 17:04:41;;;;;;;10.23;7.97;;;;;;;;;;5103337;28;20434;-72
2022/11/21 17:07:31;;;;;;;9.57;7.60;;;;;;;;;;5100242;28;20631;-70
2022/11/21 17:10:22;;;;;;;8.13;6.60;;;;;;;;;;5079834;28;20476;-71
2022/11/21 17:13:13;;;;;;;10.47;8.20;;;;;;;;;;5073179;28;21055;-70
2022/11/21 17:16:07;;;;;;;10.80;9.17;;;;;;;;;;5078006;28;20447;-70
2022/11/21 17:19:00;;;;;;;14.23;12.83;;;;;;;;;;5076006;28;20441;-70
2022/11/21 17:21:49;;;;;;;14.03;10.10;;;;;;;;;;5073816;28;20489;-70
2022/11/21 17:24:44;;;;;;;9.90;8.17;;;;;;;;;;5076023;28;20466;-71
2022/11/21 17:27:34;;;;;;;10.10;7.83;;;;;;;;;;5069878;28;20445;-70
2022/11/21 17:30:29;;;;;;;10.20;8.13;;;;;;;;;;5074883;28;20595;-70
2022/11/21 17:33:21;;;;;;;10.73;8.30;;;;;;;;;;5072565;28;20483;-70
2022/11/21 17:36:12;;;;;;;10.63;8.50;;;;;;;;;;5069145;28;20486;-69